sensor_id;sensor_type;location;lat;lon;timestamp;P1;durP1;ratioP1;P2;durP2;ratioP2
66127;SDS011;52925;52.436;-1.952;2024-02-15T05:22:31;2.97;;;2.77;;
66127;SDS011;52925;52.436;-1.952;2024-02-15T05:23:52;2.90;;;2.70;;
66127;SDS011;52925;52.436;-1.952;2024-02-15T05:25:12;2.73;;;2.53;;
66127;SDS011;52925;52.436;-1.952;2024-02-15T05:26:34;3.30;;;3.03;;
66127;SDS011;52925;52.436;-1.952;2024-02-15T05:27:54;2.90;;;2.70;;
66127;SDS011;52925;52.436;-1.952;2024-02-15T05:29:16;3.40;;;3.20;;
66127;SDS011;52925;52.436;-1.952;2024-02-15T05:30:36;3.30;;;2.77;;
66127;SDS011;52925;52.436;-1.952;2024-02-15T05:31:58;3.30;;;3.00;;
66127;SDS011;52925;52.436;-1.952;2024-02-15T05:33:18;3.57;;;3.10;;
66127;SDS011;52925;52.436;-1.952;2024-02-15T05:34:40;3.10;;;2.90;;
66127;SDS011;52925;52.436;-1.952;2024-02-15T05:35:59;3.57;;;3.00;;
66127;SDS011;52925;52.436;-1.952;2024-02-15T05:37:21;3.50;;;3.20;;
66127;SDS011;52925;52.436;-1.952;2024-02-15T05:38:43;3.60;;;3.40;;
66127;SDS011;52925;52.436;-1.952;2024-02-15T05:40:05;3.80;;;3.50;;
66127;SDS011;52925;52.436;-1.952;2024-02-15T05:41:26;4.33;;;3.93;;
66127;SDS011;52925;52.436;-1.952;2024-02-15T05:42:47;3.10;;;2.90;;
66127;SDS011;52925;52.436;-1.952;2024-02-15T05:44:08;3.23;;;3.03;;
66127;SDS011;52925;52.436;-1.952;2024-02-15T05:45:29;3.20;;;3.00;;
66127;SDS011;52925;52.436;-1.952;2024-02-15T05:46:53;3.33;;;3.13;;
66127;SDS011;52925;52.436;-1.952;2024-02-15T05:48:13;4.20;;;3.80;;
66127;SDS011;52925;52.436;-1.952;2024-02-15T05:49:33;4.03;;;3.70;;
66127;SDS011;52925;52.436;-1.952;2024-02-15T05:50:54;4.10;;;3.80;;
66127;SDS011;52925;52.436;-1.952;2024-02-15T05:52:14;3.10;;;2.90;;
66127;SDS011;52925;52.436;-1.952;2024-02-15T05:53:37;4.03;;;3.77;;
66127;SDS011;52925;52.436;-1.952;2024-02-15T05:54:58;3.90;;;3.60;;
66127;SDS011;52925;52.436;-1.952;2024-02-15T05:56:19;4.37;;;4.07;;
66127;SDS011;52925;52.436;-1.952;2024-02-15T05:57:39;3.93;;;3.63;;
66127;SDS011;52925;52.436;-1.952;2024-02-15T05:59:00;4.10;;;3.73;;
66127;SDS011;52925;52.436;-1.952;2024-02-15T06:00:21;4.17;;;3.87;;
66127;SDS011;52925;52.436;-1.952;2024-02-15T06:01:42;4.47;;;4.10;;
66127;SDS011;52925;52.436;-1.952;2024-02-15T06:03:04;4.00;;;3.67;;
66127;SDS011;52925;52.436;-1.952;2024-02-15T06:04:25;4.20;;;3.90;;
66127;SDS011;52925;52.436;-1.952;2024-02-15T06:05:47;4.17;;;3.87;;
66127;SDS011;52925;52.436;-1.952;2024-02-15T06:07:07;4.40;;;4.00;;
66127;SDS011;52925;52.436;-1.952;2024-02-15T06:08:28;4.10;;;3.80;;
66127;SDS011;52925;52.436;-1.952;2024-02-15T06:09:48;5.27;;;4.40;;
66127;SDS011;52925;52.436;-1.952;2024-02-15T06:11:10;3.97;;;3.67;;
66127;SDS011;52925;52.436;-1.952;2024-02-15T06:12:31;4.70;;;4.30;;
66127;SDS011;52925;52.436;-1.952;2024-02-15T06:13:52;4.50;;;4.13;;
66127;SDS011;52925;52.436;-1.952;2024-02-15T06:15:13;4.47;;;4.07;;
66127;SDS011;52925;52.436;-1.952;2024-02-15T06:16:33;4.50;;;4.20;;
66127;SDS011;52925;52.436;-1.952;2024-02-15T06:18:01;5.00;;;4.63;;
66127;SDS011;52925;52.436;-1.952;2024-02-15T06:19:27;4.97;;;4.57;;
66127;SDS011;52925;52.436;-1.952;2024-02-15T06:20:48;4.80;;;4.40;;
66127;SDS011;52925;52.436;-1.952;2024-02-15T06:22:08;5.10;;;4.70;;
66127;SDS011;52925;52.436;-1.952;2024-02-15T06:23:31;4.47;;;4.17;;
66127;SDS011;52925;52.436;-1.952;2024-02-15T06:24:52;4.73;;;4.37;;
66127;SDS011;52925;52.436;-1.952;2024-02-15T06:26:14;4.63;;;4.23;;
66127;SDS011;52925;52.436;-1.952;2024-02-15T06:27:34;4.90;;;4.47;;
66127;SDS011;52925;52.436;-1.952;2024-02-15T06:28:59;5.53;;;4.50;;
66127;SDS011;52925;52.436;-1.952;2024-02-15T06:30:38;5.40;;;4.23;;
66127;SDS011;52925;52.436;-1.952;2024-02-15T06:32:17;4.77;;;4.37;;
66127;SDS011;52925;52.436;-1.952;2024-02-15T06:33:55;4.60;;;4.30;;
66127;SDS011;52925;52.436;-1.952;2024-02-15T06:35:33;5.03;;;4.60;;
66127;SDS011;52925;52.436;-1.952;2024-02-15T06:37:08;4.97;;;4.50;;
66127;SDS011;52925;52.436;-1.952;2024-02-15T06:38:47;4.30;;;3.90;;
66127;SDS011;52925;52.436;-1.952;2024-02-15T06:40:25;4.70;;;4.30;;
66127;SDS011;52925;52.436;-1.952;2024-02-15T06:41:47;4.60;;;4.20;;
66127;SDS011;52925;52.436;-1.952;2024-02-15T06:43:07;4.90;;;4.50;;
66127;SDS011;52925;52.436;-1.952;2024-02-15T06:44:29;5.50;;;5.00;;
66127;SDS011;52925;52.436;-1.952;2024-02-15T06:45:49;4.30;;;4.00;;
66127;SDS011;52925;52.436;-1.952;2024-02-15T06:47:10;6.03;;;4.73;;
66127;SDS011;52925;52.436;-1.952;2024-02-15T06:48:29;4.77;;;4.37;;
66127;SDS011;52925;52.436;-1.952;2024-02-15T06:49:50;4.40;;;4.00;;
66127;SDS011;52925;52.436;-1.952;2024-02-15T06:51:13;4.90;;;4.50;;
66127;SDS011;52925;52.436;-1.952;2024-02-15T06:52:33;4.50;;;4.10;;
66127;SDS011;52925;52.436;-1.952;2024-02-15T06:53:53;5.13;;;4.63;;
66127;SDS011;52925;52.436;-1.952;2024-02-15T06:55:15;4.60;;;4.10;;
66127;SDS011;52925;52.436;-1.952;2024-02-15T06:56:36;5.33;;;4.83;;
66127;SDS011;52925;52.436;-1.952;2024-02-15T06:57:59;4.57;;;4.17;;
66127;SDS011;52925;52.436;-1.952;2024-02-15T06:59:20;4.30;;;4.00;;
66127;SDS011;52925;52.436;-1.952;2024-02-15T07:00:41;5.03;;;4.53;;
66127;SDS011;52925;52.436;-1.952;2024-02-15T07:02:01;4.33;;;3.93;;
66127;SDS011;52925;52.436;-1.952;2024-02-15T07:03:24;4.73;;;4.07;;
66127;SDS011;52925;52.436;-1.952;2024-02-15T07:04:44;4.00;;;3.60;;
66127;SDS011;52925;52.436;-1.952;2024-02-15T07:06:05;4.40;;;4.00;;
66127;SDS011;52925;52.436;-1.952;2024-02-15T07:07:25;4.50;;;3.93;;
66127;SDS011;52925;52.436;-1.952;2024-02-15T07:08:46;4.60;;;4.20;;
66127;SDS011;52925;52.436;-1.952;2024-02-15T07:10:07;4.30;;;3.90;;
66127;SDS011;52925;52.436;-1.952;2024-02-15T07:11:28;5.60;;;3.87;;
66127;SDS011;52925;52.436;-1.952;2024-02-15T07:12:49;5.07;;;4.10;;
66127;SDS011;52925;52.436;-1.952;2024-02-15T07:14:11;4.37;;;4.07;;
66127;SDS011;52925;52.436;-1.952;2024-02-15T07:15:32;4.30;;;3.90;;
66127;SDS011;52925;52.436;-1.952;2024-02-15T07:16:56;4.37;;;3.60;;
66127;SDS011;52925;52.436;-1.952;2024-02-15T16:28:17;4.10;;;2.67;;
66127;SDS011;52925;52.436;-1.952;2024-02-15T16:29:38;4.60;;;3.13;;
66127;SDS011;52925;52.436;-1.952;2024-02-15T16:30:58;5.00;;;3.10;;
66127;SDS011;52925;52.436;-1.952;2024-02-15T16:32:19;3.63;;;2.63;;
66127;SDS011;52925;52.436;-1.952;2024-02-15T16:33:39;3.60;;;2.50;;
66127;SDS011;52925;52.436;-1.952;2024-02-15T16:35:00;4.67;;;2.73;;
66127;SDS011;52925;52.436;-1.952;2024-02-15T16:36:20;4.20;;;2.93;;
66127;SDS011;52925;52.436;-1.952;2024-02-15T16:37:43;4.27;;;3.00;;
66127;SDS011;52925;52.436;-1.952;2024-02-15T16:39:03;4.13;;;2.90;;
66127;SDS011;52925;52.436;-1.952;2024-02-15T16:40:25;5.47;;;2.60;;
66127;SDS011;52925;52.436;-1.952;2024-02-15T16:41:46;6.43;;;2.63;;
66127;SDS011;52925;52.436;-1.952;2024-02-15T16:43:07;4.20;;;2.60;;
66127;SDS011;52925;52.436;-1.952;2024-02-15T16:44:28;4.37;;;2.50;;
66127;SDS011;52925;52.436;-1.952;2024-02-15T16:45:50;5.13;;;2.73;;
66127;SDS011;52925;52.436;-1.952;2024-02-15T16:47:09;5.50;;;2.70;;
66127;SDS011;52925;52.436;-1.952;2024-02-15T16:48:30;3.70;;;2.40;;
66127;SDS011;52925;52.436;-1.952;2024-02-15T16:49:50;4.07;;;2.77;;
66127;SDS011;52925;52.436;-1.952;2024-02-15T16:51:10;3.57;;;2.73;;
66127;SDS011;52925;52.436;-1.952;2024-02-15T16:52:30;4.27;;;2.90;;
66127;SDS011;52925;52.436;-1.952;2024-02-15T16:53:51;4.07;;;2.70;;
66127;SDS011;52925;52.436;-1.952;2024-02-15T16:55:10;4.77;;;2.73;;
66127;SDS011;52925;52.436;-1.952;2024-02-15T16:56:31;4.47;;;2.57;;
66127;SDS011;52925;52.436;-1.952;2024-02-15T16:57:52;3.50;;;2.70;;
66127;SDS011;52925;52.436;-1.952;2024-02-15T16:59:15;3.67;;;2.80;;
66127;SDS011;52925;52.436;-1.952;2024-02-15T17:00:36;5.43;;;2.90;;
66127;SDS011;52925;52.436;-1.952;2024-02-15T17:01:58;3.47;;;2.30;;
66127;SDS011;52925;52.436;-1.952;2024-02-15T17:03:18;4.83;;;3.00;;
66127;SDS011;52925;52.436;-1.952;2024-02-15T17:04:39;5.93;;;2.77;;
66127;SDS011;52925;52.436;-1.952;2024-02-15T17:05:59;4.23;;;2.50;;
66127;SDS011;52925;52.436;-1.952;2024-02-15T17:07:21;4.47;;;2.60;;
66127;SDS011;52925;52.436;-1.952;2024-02-15T17:08:41;4.33;;;2.57;;
66127;SDS011;52925;52.436;-1.952;2024-02-15T17:10:04;3.43;;;2.60;;
66127;SDS011;52925;52.436;-1.952;2024-02-15T17:11:25;4.63;;;2.73;;
66127;SDS011;52925;52.436;-1.952;2024-02-15T17:12:47;5.13;;;3.00;;
66127;SDS011;52925;52.436;-1.952;2024-02-15T17:14:06;3.27;;;2.70;;
66127;SDS011;52925;52.436;-1.952;2024-02-15T17:15:27;4.07;;;3.10;;
66127;SDS011;52925;52.436;-1.952;2024-02-15T17:16:48;4.87;;;2.60;;
66127;SDS011;52925;52.436;-1.952;2024-02-15T17:18:11;4.90;;;2.67;;
66127;SDS011;52925;52.436;-1.952;2024-02-15T17:19:30;4.07;;;2.80;;
66127;SDS011;52925;52.436;-1.952;2024-02-15T17:20:51;2.87;;;2.43;;
66127;SDS011;52925;52.436;-1.952;2024-02-15T17:22:11;5.73;;;2.67;;
66127;SDS011;52925;52.436;-1.952;2024-02-15T17:23:32;6.23;;;2.87;;
66127;SDS011;52925;52.436;-1.952;2024-02-15T17:24:52;4.60;;;2.67;;
66127;SDS011;52925;52.436;-1.952;2024-02-15T17:26:13;3.33;;;2.70;;
66127;SDS011;52925;52.436;-1.952;2024-02-15T17:27:33;4.13;;;2.60;;
66127;SDS011;52925;52.436;-1.952;2024-02-15T17:28:54;4.07;;;2.47;;
66127;SDS011;52925;52.436;-1.952;2024-02-15T17:30:16;5.67;;;3.30;;
66127;SDS011;52925;52.436;-1.952;2024-02-15T17:31:37;3.67;;;2.67;;
66127;SDS011;52925;52.436;-1.952;2024-02-15T17:33:01;4.20;;;2.70;;
66127;SDS011;52925;52.436;-1.952;2024-02-15T17:34:25;4.97;;;2.83;;
66127;SDS011;52925;52.436;-1.952;2024-02-15T17:35:45;3.60;;;2.77;;
66127;SDS011;52925;52.436;-1.952;2024-02-15T17:37:07;3.93;;;2.33;;
66127;SDS011;52925;52.436;-1.952;2024-02-15T17:38:28;4.23;;;2.93;;
66127;SDS011;52925;52.436;-1.952;2024-02-15T17:39:49;4.80;;;3.07;;
66127;SDS011;52925;52.436;-1.952;2024-02-15T17:41:09;6.20;;;2.90;;
66127;SDS011;52925;52.436;-1.952;2024-02-15T17:42:31;4.13;;;3.10;;
66127;SDS011;52925;52.436;-1.952;2024-02-15T17:43:51;3.70;;;2.80;;
66127;SDS011;52925;52.436;-1.952;2024-02-15T17:45:16;3.57;;;2.90;;
66127;SDS011;52925;52.436;-1.952;2024-02-15T17:46:35;3.97;;;2.57;;
66127;SDS011;52925;52.436;-1.952;2024-02-15T17:47:57;3.53;;;2.70;;
66127;SDS011;52925;52.436;-1.952;2024-02-15T17:49:18;4.63;;;2.50;;
66127;SDS011;52925;52.436;-1.952;2024-02-15T17:50:38;4.07;;;2.60;;
66127;SDS011;52925;52.436;-1.952;2024-02-15T17:51:58;4.17;;;2.60;;
66127;SDS011;52925;52.436;-1.952;2024-02-15T17:53:19;4.33;;;3.00;;
66127;SDS011;52925;52.436;-1.952;2024-02-15T17:54:41;3.33;;;2.80;;
66127;SDS011;52925;52.436;-1.952;2024-02-15T17:56:02;4.40;;;2.90;;
66127;SDS011;52925;52.436;-1.952;2024-02-15T17:57:22;4.20;;;2.80;;
66127;SDS011;52925;52.436;-1.952;2024-02-15T17:58:44;5.97;;;3.00;;
66127;SDS011;52925;52.436;-1.952;2024-02-15T18:00:04;4.33;;;2.93;;
66127;SDS011;52925;52.436;-1.952;2024-02-15T18:01:30;4.57;;;3.30;;
66127;SDS011;52925;52.436;-1.952;2024-02-15T18:02:56;6.67;;;3.77;;
66127;SDS011;52925;52.436;-1.952;2024-02-15T18:04:18;4.73;;;3.17;;
66127;SDS011;52925;52.436;-1.952;2024-02-15T18:05:39;4.97;;;3.37;;
66127;SDS011;52925;52.436;-1.952;2024-02-15T18:07:05;5.67;;;3.70;;
66127;SDS011;52925;52.436;-1.952;2024-02-15T18:08:26;4.00;;;3.33;;
66127;SDS011;52925;52.436;-1.952;2024-02-15T18:09:46;4.87;;;3.80;;
66127;SDS011;52925;52.436;-1.952;2024-02-15T18:11:09;5.63;;;3.20;;
66127;SDS011;52925;52.436;-1.952;2024-02-15T18:12:29;5.20;;;3.20;;
66127;SDS011;52925;52.436;-1.952;2024-02-15T18:13:51;5.13;;;3.50;;
66127;SDS011;52925;52.436;-1.952;2024-02-15T18:15:11;6.57;;;3.57;;
66127;SDS011;52925;52.436;-1.952;2024-02-15T18:16:36;5.50;;;3.47;;
66127;SDS011;52925;52.436;-1.952;2024-02-15T18:17:56;5.30;;;3.77;;
66127;SDS011;52925;52.436;-1.952;2024-02-15T18:19:18;6.40;;;3.30;;
66127;SDS011;52925;52.436;-1.952;2024-02-15T18:20:38;5.20;;;3.57;;
66127;SDS011;52925;52.436;-1.952;2024-02-15T18:22:00;5.23;;;3.47;;
66127;SDS011;52925;52.436;-1.952;2024-02-15T18:23:23;5.83;;;3.50;;
66127;SDS011;52925;52.436;-1.952;2024-02-15T18:24:44;6.87;;;3.50;;
66127;SDS011;52925;52.436;-1.952;2024-02-15T18:26:04;4.97;;;3.53;;
66127;SDS011;52925;52.436;-1.952;2024-02-15T18:27:25;5.87;;;3.93;;
66127;SDS011;52925;52.436;-1.952;2024-02-15T18:28:45;6.87;;;4.13;;
66127;SDS011;52925;52.436;-1.952;2024-02-15T18:30:06;8.90;;;4.70;;
66127;SDS011;52925;52.436;-1.952;2024-02-15T18:31:29;6.00;;;4.30;;
66127;SDS011;52925;52.436;-1.952;2024-02-15T18:32:54;4.60;;;3.57;;
66127;SDS011;52925;52.436;-1.952;2024-02-15T18:34:13;6.37;;;3.97;;
66127;SDS011;52925;52.436;-1.952;2024-02-15T18:35:36;6.30;;;4.17;;
66127;SDS011;52925;52.436;-1.952;2024-02-15T18:36:57;6.47;;;4.00;;
66127;SDS011;52925;52.436;-1.952;2024-02-15T18:38:18;4.97;;;3.87;;
66127;SDS011;52925;52.436;-1.952;2024-02-15T18:39:38;7.17;;;3.80;;
66127;SDS011;52925;52.436;-1.952;2024-02-15T18:40:59;7.17;;;4.03;;
66127;SDS011;52925;52.436;-1.952;2024-02-15T18:42:24;5.57;;;3.80;;
66127;SDS011;52925;52.436;-1.952;2024-02-15T18:43:44;5.70;;;3.90;;
66127;SDS011;52925;52.436;-1.952;2024-02-15T18:45:08;4.70;;;3.83;;
66127;SDS011;52925;52.436;-1.952;2024-02-15T18:46:29;6.60;;;4.00;;
66127;SDS011;52925;52.436;-1.952;2024-02-15T18:47:51;5.50;;;4.00;;
66127;SDS011;52925;52.436;-1.952;2024-02-15T18:49:11;5.07;;;3.53;;
66127;SDS011;52925;52.436;-1.952;2024-02-15T18:50:32;5.40;;;3.70;;
66127;SDS011;52925;52.436;-1.952;2024-02-15T18:51:56;7.03;;;4.10;;
66127;SDS011;52925;52.436;-1.952;2024-02-15T18:53:15;4.83;;;4.00;;
66127;SDS011;52925;52.436;-1.952;2024-02-15T18:54:37;8.47;;;3.87;;
66127;SDS011;52925;52.436;-1.952;2024-02-15T18:55:59;9.87;;;4.13;;
66127;SDS011;52925;52.436;-1.952;2024-02-15T18:57:20;5.03;;;4.07;;
66127;SDS011;52925;52.436;-1.952;2024-02-15T18:58:41;4.73;;;3.77;;
66127;SDS011;52925;52.436;-1.952;2024-02-15T19:00:03;5.17;;;4.00;;
66127;SDS011;52925;52.436;-1.952;2024-02-15T19:01:23;7.53;;;4.63;;
66127;SDS011;52925;52.436;-1.952;2024-02-15T19:02:44;6.90;;;4.10;;
66127;SDS011;52925;52.436;-1.952;2024-02-15T19:04:04;7.47;;;4.13;;
66127;SDS011;52925;52.436;-1.952;2024-02-15T19:05:26;6.93;;;4.33;;
66127;SDS011;52925;52.436;-1.952;2024-02-15T19:06:47;6.93;;;4.40;;
66127;SDS011;52925;52.436;-1.952;2024-02-15T19:08:09;6.43;;;3.97;;
66127;SDS011;52925;52.436;-1.952;2024-02-15T19:09:29;6.13;;;4.77;;
66127;SDS011;52925;52.436;-1.952;2024-02-15T19:10:50;6.20;;;4.07;;
66127;SDS011;52925;52.436;-1.952;2024-02-15T19:12:10;5.77;;;4.30;;
66127;SDS011;52925;52.436;-1.952;2024-02-15T19:13:31;6.27;;;4.27;;
66127;SDS011;52925;52.436;-1.952;2024-02-15T19:14:50;6.70;;;4.00;;
66127;SDS011;52925;52.436;-1.952;2024-02-15T19:16:12;8.00;;;4.80;;
66127;SDS011;52925;52.436;-1.952;2024-02-15T19:17:38;9.40;;;4.57;;
66127;SDS011;52925;52.436;-1.952;2024-02-15T19:18:59;6.60;;;4.23;;
66127;SDS011;52925;52.436;-1.952;2024-02-15T19:20:22;7.87;;;4.93;;
66127;SDS011;52925;52.436;-1.952;2024-02-15T19:21:42;8.73;;;4.63;;
66127;SDS011;52925;52.436;-1.952;2024-02-15T19:23:02;8.70;;;4.60;;
66127;SDS011;52925;52.436;-1.952;2024-02-15T19:24:27;9.63;;;5.07;;
66127;SDS011;52925;52.436;-1.952;2024-02-15T19:25:47;9.33;;;5.20;;
66127;SDS011;52925;52.436;-1.952;2024-02-15T19:27:08;10.43;;;5.20;;
66127;SDS011;52925;52.436;-1.952;2024-02-15T19:28:28;5.93;;;5.00;;
66127;SDS011;52925;52.436;-1.952;2024-02-15T19:29:48;8.13;;;5.00;;
66127;SDS011;52925;52.436;-1.952;2024-02-15T19:31:08;6.67;;;4.93;;
66127;SDS011;52925;52.436;-1.952;2024-02-15T19:32:31;7.50;;;5.13;;
66127;SDS011;52925;52.436;-1.952;2024-02-15T19:33:51;9.13;;;5.50;;
66127;SDS011;52925;52.436;-1.952;2024-02-15T19:35:12;10.27;;;5.00;;
66127;SDS011;52925;52.436;-1.952;2024-02-15T19:36:32;8.20;;;5.00;;
66127;SDS011;52925;52.436;-1.952;2024-02-15T19:37:55;6.70;;;5.13;;
66127;SDS011;52925;52.436;-1.952;2024-02-15T19:39:15;8.33;;;5.80;;
66127;SDS011;52925;52.436;-1.952;2024-02-15T19:40:37;7.13;;;5.57;;
66127;SDS011;52925;52.436;-1.952;2024-02-15T19:42:01;9.30;;;5.93;;
66127;SDS011;52925;52.436;-1.952;2024-02-15T19:43:22;10.07;;;6.10;;
66127;SDS011;52925;52.436;-1.952;2024-02-15T19:44:45;7.90;;;5.50;;
66127;SDS011;52925;52.436;-1.952;2024-02-15T19:46:05;9.03;;;5.37;;
66127;SDS011;52925;52.436;-1.952;2024-02-15T19:47:25;10.20;;;5.53;;
66127;SDS011;52925;52.436;-1.952;2024-02-15T19:48:47;9.73;;;5.80;;
66127;SDS011;52925;52.436;-1.952;2024-02-15T19:50:08;8.23;;;6.20;;
66127;SDS011;52925;52.436;-1.952;2024-02-15T19:51:32;8.87;;;5.70;;
66127;SDS011;52925;52.436;-1.952;2024-02-15T19:52:53;7.87;;;6.20;;
66127;SDS011;52925;52.436;-1.952;2024-02-15T19:54:13;8.37;;;5.93;;
66127;SDS011;52925;52.436;-1.952;2024-02-15T19:55:33;8.37;;;5.70;;
66127;SDS011;52925;52.436;-1.952;2024-02-15T19:56:55;9.83;;;6.50;;
66127;SDS011;52925;52.436;-1.952;2024-02-15T19:58:16;9.07;;;6.10;;
66127;SDS011;52925;52.436;-1.952;2024-02-15T19:59:38;8.47;;;5.93;;
66127;SDS011;52925;52.436;-1.952;2024-02-15T20:00:58;7.30;;;5.80;;
66127;SDS011;52925;52.436;-1.952;2024-02-15T20:02:29;8.30;;;6.00;;
66127;SDS011;52925;52.436;-1.952;2024-02-15T20:03:48;10.13;;;6.63;;
66127;SDS011;52925;52.436;-1.952;2024-02-15T20:05:09;9.40;;;6.60;;
66127;SDS011;52925;52.436;-1.952;2024-02-15T20:06:29;9.27;;;6.10;;
66127;SDS011;52925;52.436;-1.952;2024-02-15T20:07:50;9.87;;;5.97;;
66127;SDS011;52925;52.436;-1.952;2024-02-15T20:09:10;8.60;;;5.87;;
66127;SDS011;52925;52.436;-1.952;2024-02-15T20:10:31;8.47;;;5.97;;
66127;SDS011;52925;52.436;-1.952;2024-02-15T20:11:56;12.20;;;6.27;;
66127;SDS011;52925;52.436;-1.952;2024-02-15T20:13:18;9.10;;;6.70;;
66127;SDS011;52925;52.436;-1.952;2024-02-15T20:14:38;10.20;;;6.03;;
66127;SDS011;52925;52.436;-1.952;2024-02-15T20:15:58;8.07;;;6.33;;
66127;SDS011;52925;52.436;-1.952;2024-02-15T20:17:22;9.60;;;5.90;;
66127;SDS011;52925;52.436;-1.952;2024-02-15T20:18:43;11.00;;;5.63;;
66127;SDS011;52925;52.436;-1.952;2024-02-15T20:20:04;9.53;;;5.53;;
66127;SDS011;52925;52.436;-1.952;2024-02-15T20:21:31;8.10;;;5.90;;
66127;SDS011;52925;52.436;-1.952;2024-02-15T20:22:52;9.03;;;6.07;;
66127;SDS011;52925;52.436;-1.952;2024-02-15T20:24:13;9.13;;;6.17;;
66127;SDS011;52925;52.436;-1.952;2024-02-15T20:25:33;6.83;;;6.13;;
66127;SDS011;52925;52.436;-1.952;2024-02-15T20:26:53;8.03;;;6.23;;
66127;SDS011;52925;52.436;-1.952;2024-02-15T20:28:15;6.50;;;5.80;;
66127;SDS011;52925;52.436;-1.952;2024-02-15T20:29:36;8.80;;;5.80;;
66127;SDS011;52925;52.436;-1.952;2024-02-15T20:30:56;8.03;;;5.83;;
66127;SDS011;52925;52.436;-1.952;2024-02-15T20:32:18;8.30;;;5.87;;
66127;SDS011;52925;52.436;-1.952;2024-02-15T20:33:40;8.47;;;6.23;;
66127;SDS011;52925;52.436;-1.952;2024-02-15T20:35:01;8.00;;;6.00;;
66127;SDS011;52925;52.436;-1.952;2024-02-15T20:36:21;9.57;;;6.47;;
66127;SDS011;52925;52.436;-1.952;2024-02-15T20:37:42;9.00;;;6.37;;
66127;SDS011;52925;52.436;-1.952;2024-02-15T20:39:02;7.37;;;6.07;;
66127;SDS011;52925;52.436;-1.952;2024-02-15T20:40:24;6.73;;;5.87;;
66127;SDS011;52925;52.436;-1.952;2024-02-15T20:41:44;8.17;;;5.87;;
66127;SDS011;52925;52.436;-1.952;2024-02-15T20:43:05;7.77;;;6.10;;
66127;SDS011;52925;52.436;-1.952;2024-02-15T20:44:26;8.47;;;6.00;;
66127;SDS011;52925;52.436;-1.952;2024-02-15T20:45:47;6.80;;;6.10;;
66127;SDS011;52925;52.436;-1.952;2024-02-15T20:47:07;7.80;;;5.87;;
66127;SDS011;52925;52.436;-1.952;2024-02-15T20:48:30;6.07;;;5.47;;
66127;SDS011;52925;52.436;-1.952;2024-02-15T20:49:50;7.93;;;5.87;;
66127;SDS011;52925;52.436;-1.952;2024-02-15T20:51:10;7.60;;;5.73;;
66127;SDS011;52925;52.436;-1.952;2024-02-15T20:52:30;6.63;;;5.93;;
66127;SDS011;52925;52.436;-1.952;2024-02-15T20:53:52;6.73;;;6.03;;
66127;SDS011;52925;52.436;-1.952;2024-02-15T20:55:13;6.47;;;5.73;;
66127;SDS011;52925;52.436;-1.952;2024-02-15T20:56:34;6.67;;;5.93;;
66127;SDS011;52925;52.436;-1.952;2024-02-15T20:57:55;7.03;;;6.00;;
66127;SDS011;52925;52.436;-1.952;2024-02-15T20:59:16;6.17;;;5.57;;
66127;SDS011;52925;52.436;-1.952;2024-02-15T21:00:37;6.50;;;5.80;;
66127;SDS011;52925;52.436;-1.952;2024-02-15T21:01:58;7.50;;;5.93;;
66127;SDS011;52925;52.436;-1.952;2024-02-15T21:03:19;7.47;;;5.73;;
66127;SDS011;52925;52.436;-1.952;2024-02-15T21:04:40;6.30;;;5.67;;
66127;SDS011;52925;52.436;-1.952;2024-02-15T21:06:00;9.33;;;6.13;;
66127;SDS011;52925;52.436;-1.952;2024-02-15T21:07:21;6.77;;;6.20;;
66127;SDS011;52925;52.436;-1.952;2024-02-15T21:08:41;7.33;;;6.00;;
66127;SDS011;52925;52.436;-1.952;2024-02-15T21:10:02;10.07;;;6.47;;
66127;SDS011;52925;52.436;-1.952;2024-02-15T21:11:23;7.37;;;5.70;;
66127;SDS011;52925;52.436;-1.952;2024-02-15T21:12:44;6.20;;;5.60;;
66127;SDS011;52925;52.436;-1.952;2024-02-15T21:14:04;6.43;;;5.83;;
66127;SDS011;52925;52.436;-1.952;2024-02-15T21:15:26;7.03;;;5.43;;
66127;SDS011;52925;52.436;-1.952;2024-02-15T21:16:47;8.27;;;6.17;;
66127;SDS011;52925;52.436;-1.952;2024-02-15T21:18:08;6.10;;;5.60;;
66127;SDS011;52925;52.436;-1.952;2024-02-15T21:19:28;6.67;;;6.03;;
66127;SDS011;52925;52.436;-1.952;2024-02-15T21:20:49;8.80;;;6.03;;
66127;SDS011;52925;52.436;-1.952;2024-02-15T21:22:08;7.53;;;5.90;;
66127;SDS011;52925;52.436;-1.952;2024-02-15T21:23:29;6.33;;;5.73;;
66127;SDS011;52925;52.436;-1.952;2024-02-15T21:24:50;7.63;;;6.13;;
66127;SDS011;52925;52.436;-1.952;2024-02-15T21:26:11;7.13;;;5.90;;
66127;SDS011;52925;52.436;-1.952;2024-02-15T21:27:31;6.73;;;5.80;;
66127;SDS011;52925;52.436;-1.952;2024-02-15T21:28:52;7.87;;;6.33;;
66127;SDS011;52925;52.436;-1.952;2024-02-15T21:30:12;7.23;;;6.00;;
66127;SDS011;52925;52.436;-1.952;2024-02-15T21:31:33;6.80;;;6.13;;
66127;SDS011;52925;52.436;-1.952;2024-02-15T21:32:54;7.20;;;5.80;;
66127;SDS011;52925;52.436;-1.952;2024-02-15T21:34:15;6.17;;;5.57;;
66127;SDS011;52925;52.436;-1.952;2024-02-15T21:35:35;6.93;;;6.07;;
66127;SDS011;52925;52.436;-1.952;2024-02-15T21:36:56;6.90;;;6.30;;
66127;SDS011;52925;52.436;-1.952;2024-02-15T21:38:17;6.57;;;5.90;;
66127;SDS011;52925;52.436;-1.952;2024-02-15T21:39:37;7.43;;;6.03;;
66127;SDS011;52925;52.436;-1.952;2024-02-15T21:41:00;7.00;;;6.03;;
66127;SDS011;52925;52.436;-1.952;2024-02-15T21:42:20;8.30;;;5.90;;
66127;SDS011;52925;52.436;-1.952;2024-02-15T21:43:41;7.30;;;5.97;;
66127;SDS011;52925;52.436;-1.952;2024-02-15T21:45:02;5.50;;;5.00;;
66127;SDS011;52925;52.436;-1.952;2024-02-15T21:46:26;6.37;;;5.77;;
66127;SDS011;52925;52.436;-1.952;2024-02-15T21:47:46;6.17;;;5.60;;
66127;SDS011;52925;52.436;-1.952;2024-02-15T21:49:08;6.30;;;5.70;;
66127;SDS011;52925;52.436;-1.952;2024-02-15T21:50:28;7.30;;;5.97;;
66127;SDS011;52925;52.436;-1.952;2024-02-15T21:51:49;6.57;;;5.97;;
66127;SDS011;52925;52.436;-1.952;2024-02-15T21:53:09;7.57;;;5.77;;
66127;SDS011;52925;52.436;-1.952;2024-02-15T21:54:31;6.00;;;5.37;;
66127;SDS011;52925;52.436;-1.952;2024-02-15T21:55:51;7.17;;;5.73;;
66127;SDS011;52925;52.436;-1.952;2024-02-15T21:57:12;5.47;;;4.73;;
66127;SDS011;52925;52.436;-1.952;2024-02-15T21:58:33;6.37;;;5.30;;
66127;SDS011;52925;52.436;-1.952;2024-02-15T21:59:54;5.40;;;5.00;;
66127;SDS011;52925;52.436;-1.952;2024-02-15T22:01:14;6.20;;;5.40;;
66127;SDS011;52925;52.436;-1.952;2024-02-15T22:02:35;5.93;;;5.43;;
66127;SDS011;52925;52.436;-1.952;2024-02-15T22:03:55;5.80;;;5.27;;
66127;SDS011;52925;52.436;-1.952;2024-02-15T22:05:18;5.07;;;4.57;;
66127;SDS011;52925;52.436;-1.952;2024-02-15T22:06:37;6.50;;;5.80;;
66127;SDS011;52925;52.436;-1.952;2024-02-15T22:07:58;5.13;;;4.73;;
66127;SDS011;52925;52.436;-1.952;2024-02-15T22:09:18;5.63;;;5.13;;
66127;SDS011;52925;52.436;-1.952;2024-02-15T22:10:39;5.70;;;5.00;;
66127;SDS011;52925;52.436;-1.952;2024-02-15T22:12:00;5.50;;;4.90;;
66127;SDS011;52925;52.436;-1.952;2024-02-15T22:13:20;6.07;;;4.73;;
66127;SDS011;52925;52.436;-1.952;2024-02-15T22:14:41;5.30;;;4.80;;
66127;SDS011;52925;52.436;-1.952;2024-02-15T22:16:02;5.60;;;4.83;;
66127;SDS011;52925;52.436;-1.952;2024-02-15T22:17:22;5.10;;;4.60;;
66127;SDS011;52925;52.436;-1.952;2024-02-15T22:18:43;5.67;;;5.13;;
66127;SDS011;52925;52.436;-1.952;2024-02-15T22:20:06;5.17;;;4.67;;
66127;SDS011;52925;52.436;-1.952;2024-02-15T22:21:32;5.37;;;4.90;;
66127;SDS011;52925;52.436;-1.952;2024-02-15T22:22:52;5.80;;;5.20;;
66127;SDS011;52925;52.436;-1.952;2024-02-15T22:24:13;5.47;;;4.90;;
66127;SDS011;52925;52.436;-1.952;2024-02-15T22:25:32;6.27;;;5.67;;
66127;SDS011;52925;52.436;-1.952;2024-02-15T22:26:55;5.30;;;4.80;;
66127;SDS011;52925;52.436;-1.952;2024-02-15T22:28:17;5.63;;;5.23;;
66127;SDS011;52925;52.436;-1.952;2024-02-15T22:29:39;5.57;;;5.00;;
66127;SDS011;52925;52.436;-1.952;2024-02-15T22:30:59;5.37;;;4.87;;
66127;SDS011;52925;52.436;-1.952;2024-02-15T22:32:19;5.30;;;4.70;;
66127;SDS011;52925;52.436;-1.952;2024-02-15T22:33:41;5.30;;;4.80;;
66127;SDS011;52925;52.436;-1.952;2024-02-15T22:35:01;5.93;;;5.00;;